Oceanus Leader — 3FDF7 — position and weather

sailwx.info

Track history (hours):
 
Tides and Currents Weather Stations Pressure Air Temp Water Temp Dewpoint Dewpoint Depression Visibility Wind Speed Wind Dir Waves Ship Positions

Oceanus Leader

Last reported at 2018-Jan-27 06:01 UTC. Time now 2018-Feb-19 11:46 UTC.
Position N 01°17' E 103°21'.
Warning: this ship's position is 23 days out of date.

Length 199 m; draft 9.6 m.

Type: Cargo ship. MMSI: 351026000.

Date/timePositionNaut miles runAvg speedWind from/ knotsBaromVisibWave heightAir tempDewpointWater temp
2018-Jan-27 06:01N 01°17' E 103°21'314.2
2018-Jan-27 05:49N 01°15' E 103°23'413.2
2018-Jan-27 05:29N 01°13' E 103°27'814.7
2018-Jan-27 04:58N 01°12' E 103°35'510.7
2018-Jan-27 04:29N 01°13' E 103°40'5 9.9
2018-Jan-27 03:59N 01°15' E 103°44'2 3.3
2018-Jan-27 03:24N 01°17' E 103°45'0 0.0
2018-Jan-27 02:45N 01°17' E 103°45'0 0.0
2018-Jan-27 02:30N 01°17' E 103°45'0 0.0
2018-Jan-27 01:54N 01°17' E 103°45'0 0.0
2018-Jan-27 01:27N 01°17' E 103°45'0 0.0
2018-Jan-27 00:51N 01°17' E 103°45'0 0.0
2018-Jan-27 00:24N 01°17' E 103°45'0 0.0
2018-Jan-26 23:45N 01°17' E 103°45'0 0.0
2018-Jan-26 22:48N 01°17' E 103°45'0 0.0
2018-Jan-26 21:45N 01°17' E 103°45'0 0.0
2018-Jan-26 21:24N 01°17' E 103°45'0 0.0
2018-Jan-26 21:00N 01°17' E 103°45'0 0.0
2018-Jan-26 20:30N 01°17' E 103°45'0 0.0
2018-Jan-26 17:15N 01°17' E 103°45'0 0.0
2018-Jan-26 16:57N 01°17' E 103°45'0 0.0
2018-Jan-26 16:27N 01°17' E 103°45'0 0.0
2018-Jan-26 16:00N 01°17' E 103°45'1 1.2
2018-Jan-26 15:30N 01°16' E 103°45'510.1
2018-Jan-26 14:59N 01°13' E 103°49'5 9.9
2018-Jan-26 14:30N 01°13' E 103°53'4 7.8
2018-Jan-26 14:01N 01°15' E 103°57'510.6
2018-Jan-26 13:30N 01°16' E 104°02'17 9.8
2018-Jan-26 11:43N 01°19' E 104°20'2 7.6
2018-Jan-26 11:28N 01°20' E 104°21'3 6.7
2018-Jan-26 11:01N 01°22' E 104°23'  
2018-Jan-19 04:56N 22°49' E 119°50'716.7
2018-Jan-19 04:30N 22°56' E 119°51'816.4
2018-Jan-19 03:59N 23°04' E 119°51'1115.7
2018-Jan-19 03:16N 23°15' E 119°51'514.7
2018-Jan-19 02:57N 23°20' E 119°52'614.4
2018-Jan-19 02:30N 23°26' E 119°52'714.0
2018-Jan-19 02:00N 23°34' E 119°53'713.7
2018-Jan-19 01:30N 23°40' E 119°53'713.7
2018-Jan-19 00:59N 23°47' E 119°53'146 5.9
2018-Jan-18 00:00N 25°31' E 121°46'114.0
2018-Jan-17 23:56N 25°32' E 121°47'  
Track history (hours):
 
Tides and Currents Weather Stations Pressure Air Temp Water Temp Dewpoint Dewpoint Depression Visibility Wind Speed Wind Dir Waves Ship Positions

Oceanus Leader

Last reported at 2018-Jan-27 06:01 UTC. Time now 2018-Feb-19 11:46 UTC.
Position N 01°17' E 103°21'.
Warning: this ship's position is 23 days out of date.

Length 199 m; draft 9.6 m.

Type: Cargo ship. MMSI: 351026000.

Date/timePositionNaut miles runAvg speedWind from/ knotsBaromVisibWave heightAir tempDewpointWater temp
2018-Jan-27 06:01N 01°17' E 103°21'314.2
2018-Jan-27 05:49N 01°15' E 103°23'413.2
2018-Jan-27 05:29N 01°13' E 103°27'814.7
2018-Jan-27 04:58N 01°12' E 103°35'510.7
2018-Jan-27 04:29N 01°13' E 103°40'5 9.9
2018-Jan-27 03:59N 01°15' E 103°44'2 3.3
2018-Jan-27 03:24N 01°17' E 103°45'0 0.0
2018-Jan-27 02:45N 01°17' E 103°45'0 0.0
2018-Jan-27 02:30N 01°17' E 103°45'0 0.0
2018-Jan-27 01:54N 01°17' E 103°45'0 0.0
2018-Jan-27 01:27N 01°17' E 103°45'0 0.0
2018-Jan-27 00:51N 01°17' E 103°45'0 0.0
2018-Jan-27 00:24N 01°17' E 103°45'0 0.0
2018-Jan-26 23:45N 01°17' E 103°45'0 0.0
2018-Jan-26 22:48N 01°17' E 103°45'0 0.0
2018-Jan-26 21:45N 01°17' E 103°45'0 0.0
2018-Jan-26 21:24N 01°17' E 103°45'0 0.0
2018-Jan-26 21:00N 01°17' E 103°45'0 0.0
2018-Jan-26 20:30N 01°17' E 103°45'0 0.0
2018-Jan-26 17:15N 01°17' E 103°45'0 0.0
2018-Jan-26 16:57N 01°17' E 103°45'0 0.0
2018-Jan-26 16:27N 01°17' E 103°45'0 0.0
2018-Jan-26 16:00N 01°17' E 103°45'1 1.2
2018-Jan-26 15:30N 01°16' E 103°45'510.1
2018-Jan-26 14:59N 01°13' E 103°49'5 9.9
2018-Jan-26 14:30N 01°13' E 103°53'4 7.8
2018-Jan-26 14:01N 01°15' E 103°57'510.6
2018-Jan-26 13:30N 01°16' E 104°02'17 9.8
2018-Jan-26 11:43N 01°19' E 104°20'2 7.6
2018-Jan-26 11:28N 01°20' E 104°21'3 6.7
2018-Jan-26 11:01N 01°22' E 104°23'  
2018-Jan-19 04:56N 22°49' E 119°50'716.7
2018-Jan-19 04:30N 22°56' E 119°51'816.4
2018-Jan-19 03:59N 23°04' E 119°51'1115.7
2018-Jan-19 03:16N 23°15' E 119°51'514.7
2018-Jan-19 02:57N 23°20' E 119°52'614.4
2018-Jan-19 02:30N 23°26' E 119°52'714.0
2018-Jan-19 02:00N 23°34' E 119°53'713.7
2018-Jan-19 01:30N 23°40' E 119°53'713.7
2018-Jan-19 00:59N 23°47' E 119°53'146 5.9
2018-Jan-18 00:00N 25°31' E 121°46'114.0
2018-Jan-17 23:56N 25°32' E 121°47'  

Dump ship's entire track history